Svenner — V7RM4 — position and weather

sailwx.info

Track history (hours):
 
Tides and Currents Weather Stations Pressure Air Temp Water Temp Dewpoint Dewpoint Depression Visibility Wind Speed Wind Dir Waves Ship Positions

Svenner

Last reported at 2017-Oct-31 02:30 UTC. Time now 2017-Dec-16 08:54 UTC.
Position N 19°18' W 018°40'.
Warning: this ship's position is 46 days out of date.

Length 189 m; draft 9.6 m.

Type: Cargo ship. MMSI: 538003540.

Date/timePositionNaut miles runAvg speedWind from/ knotsBaromVisibWave heightAir tempDewpointWater temp
2017-Oct-31 02:30N 19°18' W 018°40'15211.5
2017-Oct-30 13:21N 21°49' W 018°26'1711.9
2017-Oct-30 11:58N 22°05' W 018°24'611.6
2017-Oct-30 11:26N 22°11' W 018°23'611.8
2017-Oct-30 10:53N 22°18' W 018°21'511.6
2017-Oct-30 10:25N 22°23' W 018°20'511.9
2017-Oct-30 10:00N 22°28' W 018°18'1211.5
2017-Oct-30 08:56N 22°39' W 018°14'10811.7
2017-Oct-29 23:41N 24°15' W 017°21'411.5
2017-Oct-29 23:21N 24°19' W 017°19'411.5
2017-Oct-29 23:00N 24°22' W 017°17'611.8
2017-Oct-29 22:30N 24°27' W 017°13'911.6
2017-Oct-29 21:43N 24°35' W 017°08'211.2
2017-Oct-29 21:31N 24°37' W 017°07'6811.4
2017-Oct-29 15:34N 25°37' W 016°30'11112.3
2017-Oct-29 06:30N 27°14' W 015°30'712.4
2017-Oct-29 05:56N 27°20' W 015°26'2412.5
2017-Oct-29 04:02N 27°41' W 015°13'113.8
2017-Oct-29 03:59N 27°41' W 015°13'10611.8
2017-Oct-28 19:00N 29°10' W 014°06'612.0
2017-Oct-28 18:30N 29°14' W 014°02'611.7
2017-Oct-28 18:00N 29°19' W 013°57'611.4
2017-Oct-28 17:29N 29°23' W 013°53'611.3
2017-Oct-28 16:59N 29°28' W 013°49'611.2
2017-Oct-28 16:28N 29°32' W 013°44'611.2
2017-Oct-28 15:58N 29°36' W 013°40'611.3
2017-Oct-28 15:28N 29°41' W 013°36'511.6
2017-Oct-28 15:00N 29°45' W 013°32'611.5
2017-Oct-28 14:29N 29°49' W 013°28'611.3
2017-Oct-28 13:56N 29°54' W 013°24'511.1
2017-Oct-28 13:29N 29°58' W 013°20'611.0
2017-Oct-28 12:59N 30°02' W 013°15'511.0
2017-Oct-28 12:30N 30°06' W 013°11'611.0
2017-Oct-28 12:00N 30°11' W 013°07'611.0
2017-Oct-28 11:30N 30°15' W 013°03'711.3
2017-Oct-28 10:54N 30°20' W 012°58'511.5
2017-Oct-28 10:30N 30°23' W 012°55'611.3
2017-Oct-28 09:59N 30°28' W 012°50'2611.6
2017-Oct-28 07:45N 30°47' W 012°31'311.3
2017-Oct-28 07:30N 30°49' W 012°28'611.4
2017-Oct-28 06:59N 30°54' W 012°24'611.2
2017-Oct-28 06:29N 30°58' W 012°20'511.2
2017-Oct-28 06:00N 31°02' W 012°16'4711.5
2017-Oct-28 01:53N 31°39' W 011°40'811.9
2017-Oct-28 01:12N 31°45' W 011°34'1012.0
2017-Oct-28 00:19N 31°53' W 011°26'7611.7
2017-Oct-27 17:51N 32°50' W 010°27'1011.8
2017-Oct-27 17:01N 32°56' W 010°18'012.8
2017-Oct-27 16:58N 32°57' W 010°17'2511.7
2017-Oct-27 14:53N 33°13' W 009°56'3711.6
2017-Oct-27 11:38N 33°38' W 009°23'12612.1
2017-Oct-27 01:10N 35°03' W 007°29'211.4
2017-Oct-27 01:00N 35°04' W 007°27'611.5
2017-Oct-27 00:30N 35°08' W 007°22'611.6
2017-Oct-27 00:00N 35°12' W 007°17'611.4
2017-Oct-26 23:30N 35°16' W 007°12'611.3
2017-Oct-26 23:00N 35°20' W 007°07'711.6
2017-Oct-26 22:25N 35°24' W 007°00'511.6
2017-Oct-26 22:00N 35°27' W 006°56'611.6
2017-Oct-26 21:30N 35°31' W 006°51'611.3
2017-Oct-26 21:00N 35°35' W 006°46'611.2
2017-Oct-26 20:30N 35°39' W 006°41'6311.3
2017-Oct-26 14:53N 36°00' W 005°27'  
Track history (hours):
 
Tides and Currents Weather Stations Pressure Air Temp Water Temp Dewpoint Dewpoint Depression Visibility Wind Speed Wind Dir Waves Ship Positions

Svenner

Last reported at 2017-Oct-31 02:30 UTC. Time now 2017-Dec-16 08:54 UTC.
Position N 19°18' W 018°40'.
Warning: this ship's position is 46 days out of date.

Length 189 m; draft 9.6 m.

Type: Cargo ship. MMSI: 538003540.

Date/timePositionNaut miles runAvg speedWind from/ knotsBaromVisibWave heightAir tempDewpointWater temp
2017-Oct-31 02:30N 19°18' W 018°40'15211.5
2017-Oct-30 13:21N 21°49' W 018°26'1711.9
2017-Oct-30 11:58N 22°05' W 018°24'611.6
2017-Oct-30 11:26N 22°11' W 018°23'611.8
2017-Oct-30 10:53N 22°18' W 018°21'511.6
2017-Oct-30 10:25N 22°23' W 018°20'511.9
2017-Oct-30 10:00N 22°28' W 018°18'1211.5
2017-Oct-30 08:56N 22°39' W 018°14'10811.7
2017-Oct-29 23:41N 24°15' W 017°21'411.5
2017-Oct-29 23:21N 24°19' W 017°19'411.5
2017-Oct-29 23:00N 24°22' W 017°17'611.8
2017-Oct-29 22:30N 24°27' W 017°13'911.6
2017-Oct-29 21:43N 24°35' W 017°08'211.2
2017-Oct-29 21:31N 24°37' W 017°07'6811.4
2017-Oct-29 15:34N 25°37' W 016°30'11112.3
2017-Oct-29 06:30N 27°14' W 015°30'712.4
2017-Oct-29 05:56N 27°20' W 015°26'2412.5
2017-Oct-29 04:02N 27°41' W 015°13'113.8
2017-Oct-29 03:59N 27°41' W 015°13'10611.8
2017-Oct-28 19:00N 29°10' W 014°06'612.0
2017-Oct-28 18:30N 29°14' W 014°02'611.7
2017-Oct-28 18:00N 29°19' W 013°57'611.4
2017-Oct-28 17:29N 29°23' W 013°53'611.3
2017-Oct-28 16:59N 29°28' W 013°49'611.2
2017-Oct-28 16:28N 29°32' W 013°44'611.2
2017-Oct-28 15:58N 29°36' W 013°40'611.3
2017-Oct-28 15:28N 29°41' W 013°36'511.6
2017-Oct-28 15:00N 29°45' W 013°32'611.5
2017-Oct-28 14:29N 29°49' W 013°28'611.3
2017-Oct-28 13:56N 29°54' W 013°24'511.1
2017-Oct-28 13:29N 29°58' W 013°20'611.0
2017-Oct-28 12:59N 30°02' W 013°15'511.0
2017-Oct-28 12:30N 30°06' W 013°11'611.0
2017-Oct-28 12:00N 30°11' W 013°07'611.0
2017-Oct-28 11:30N 30°15' W 013°03'711.3
2017-Oct-28 10:54N 30°20' W 012°58'511.5
2017-Oct-28 10:30N 30°23' W 012°55'611.3
2017-Oct-28 09:59N 30°28' W 012°50'2611.6
2017-Oct-28 07:45N 30°47' W 012°31'311.3
2017-Oct-28 07:30N 30°49' W 012°28'611.4
2017-Oct-28 06:59N 30°54' W 012°24'611.2
2017-Oct-28 06:29N 30°58' W 012°20'511.2
2017-Oct-28 06:00N 31°02' W 012°16'4711.5
2017-Oct-28 01:53N 31°39' W 011°40'811.9
2017-Oct-28 01:12N 31°45' W 011°34'1012.0
2017-Oct-28 00:19N 31°53' W 011°26'7611.7
2017-Oct-27 17:51N 32°50' W 010°27'1011.8
2017-Oct-27 17:01N 32°56' W 010°18'012.8
2017-Oct-27 16:58N 32°57' W 010°17'2511.7
2017-Oct-27 14:53N 33°13' W 009°56'3711.6
2017-Oct-27 11:38N 33°38' W 009°23'12612.1
2017-Oct-27 01:10N 35°03' W 007°29'211.4
2017-Oct-27 01:00N 35°04' W 007°27'611.5
2017-Oct-27 00:30N 35°08' W 007°22'611.6
2017-Oct-27 00:00N 35°12' W 007°17'611.4
2017-Oct-26 23:30N 35°16' W 007°12'611.3
2017-Oct-26 23:00N 35°20' W 007°07'711.6
2017-Oct-26 22:25N 35°24' W 007°00'511.6
2017-Oct-26 22:00N 35°27' W 006°56'611.6
2017-Oct-26 21:30N 35°31' W 006°51'611.3
2017-Oct-26 21:00N 35°35' W 006°46'611.2
2017-Oct-26 20:30N 35°39' W 006°41'6311.3
2017-Oct-26 14:53N 36°00' W 005°27'  

Dump ship's entire track history